Time;durP1;ratioP1;P1;durP2;ratioP2;P2;SDS_P1;SDS_P2;PMS_P1;PMS_P2;Temp;Humidity;BMP_temperature;BMP_pressure;BME280_temperature;BME280_humidity;BME280_pressure;Samples;Min_cycle;Max_cycle;Signal;HPM_P1;HPM_P2
2023/05/01 00:00:47;;;;;;;8.27;3.13;;;9.70;99.90;;;;;;4984167;28;20038;-85
2023/05/01 00:03:14;;;;;;;4.03;2.90;;;9.70;99.90;;;;;;4984556;28;20043;-84
2023/05/01 00:05:39;;;;;;;6.22;3.40;;;9.60;99.90;;;;;;4984632;28;20097;-85
2023/05/01 00:08:05;;;;;;;2.40;1.63;;;9.60;99.90;;;;;;4983855;28;20116;-84
2023/05/01 00:10:33;;;;;;;4.30;2.55;;;9.60;99.90;;;;;;4984238;28;20075;-83
2023/05/01 00:12:59;;;;;;;3.80;3.03;;;9.60;99.90;;;;;;4981586;28;20387;-83
2023/05/01 00:15:24;;;;;;;5.47;2.33;;;9.60;99.90;;;;;;4984381;28;20043;-83
2023/05/01 00:17:52;;;;;;;7.13;2.25;;;9.60;99.90;;;;;;4999227;28;20070;-85
2023/05/01 00:20:18;;;;;;;6.25;2.88;;;9.60;99.90;;;;;;4982551;28;20060;-84
2023/05/01 00:22:43;;;;;;;7.18;2.33;;;9.50;99.90;;;;;;4984748;28;20408;-82
2023/05/01 00:25:09;;;;;;;5.60;2.38;;;9.50;99.90;;;;;;4967107;28;20038;-84
2023/05/01 00:27:35;;;;;;;5.70;2.80;;;9.50;99.90;;;;;;4982777;28;20054;-82
2023/05/01 00:30:01;;;;;;;4.82;2.97;;;9.50;99.90;;;;;;4982497;28;20362;-84
2023/05/01 00:32:26;;;;;;;5.18;2.70;;;9.40;99.90;;;;;;4982145;28;20561;-83
2023/05/01 00:34:52;;;;;;;3.08;1.88;;;9.40;99.90;;;;;;4983964;28;20089;-80
2023/05/01 00:37:18;;;;;;;3.17;1.85;;;9.40;99.90;;;;;;4982458;28;20130;-84
2023/05/01 00:39:43;;;;;;;4.38;2.33;;;9.40;99.90;;;;;;4984493;28;20038;-83
2023/05/01 00:42:09;;;;;;;3.10;2.17;;;9.40;99.90;;;;;;4997548;28;20492;-85
2023/05/01 00:44:34;;;;;;;5.13;2.08;;;9.40;99.90;;;;;;4982477;28;20104;-82
2023/05/01 00:47:01;;;;;;;5.28;2.38;;;9.30;99.90;;;;;;4983773;28;20042;-84
2023/05/01 00:49:27;;;;;;;7.05;2.95;;;9.30;99.90;;;;;;4983495;28;20524;-82
2023/05/01 00:51:53;;;;;;;3.22;1.80;;;9.20;99.90;;;;;;4984009;28;20042;-83
2023/05/01 00:54:19;;;;;;;6.03;2.08;;;9.20;99.90;;;;;;4982075;28;20081;-84
2023/05/01 00:56:46;;;;;;;3.38;2.42;;;9.20;99.90;;;;;;4983305;28;20045;-83
2023/05/01 00:59:13;;;;;;;4.25;2.17;;;9.20;99.90;;;;;;4983276;28;20148;-85
2023/05/01 01:01:40;;;;;;;7.78;2.20;;;9.20;99.90;;;;;;4983605;28;20069;-83
2023/05/01 01:04:07;;;;;;;7.18;2.72;;;9.20;99.90;;;;;;4983141;28;20061;-82
2023/05/01 01:06:50;;;;;;;5.93;2.35;;;9.20;99.90;;;;;;4982084;28;20066;-85
2023/05/01 01:09:47;;;;;;;3.50;2.15;;;9.20;99.90;;;;;;5055246;23;20128;-84
2023/05/01 01:12:38;;;;;;;5.45;2.00;;;9.10;99.90;;;;;;4981679;28;20323;-84
2023/05/01 01:15:18;;;;;;;3.30;2.25;;;9.10;99.90;;;;;;4983566;28;20100;-85
2023/05/01 01:18:06;;;;;;;3.20;1.67;;;9.00;99.90;;;;;;4966628;28;20437;-85
2023/05/01 01:20:44;;;;;;;3.40;1.92;;;9.00;99.90;;;;;;4983484;28;20701;-84
2023/05/01 01:23:35;;;;;;;2.70;1.65;;;9.00;99.90;;;;;;4982719;28;20050;-85
2023/05/01 01:26:26;;;;;;;5.57;3.10;;;9.00;99.90;;;;;;4982292;28;20042;-85
2023/05/01 01:29:18;;;;;;;3.90;1.85;;;9.00;99.90;;;;;;4982378;28;20500;-84
2023/05/01 01:32:19;;;;;;;3.47;2.17;;;8.90;99.90;;;;;;4983111;28;20228;-83
2023/05/01 01:34:54;;;;;;;4.10;2.95;;;8.90;99.90;;;;;;4983331;28;20038;-85
2023/05/01 01:37:27;;;;;;;1.65;1.35;;;8.90;99.90;;;;;;4982612;28;20512;-84
2023/05/01 01:40:08;;;;;;;5.68;2.88;;;8.90;99.90;;;;;;4983818;28;20039;-83
2023/05/01 01:42:41;;;;;;;7.10;2.70;;;8.80;99.90;;;;;;4982889;28;20121;-84
2023/05/01 01:45:14;;;;;;;4.75;3.40;;;8.80;99.90;;;;;;4984490;28;20104;-81
2023/05/01 01:47:41;;;;;;;3.65;2.10;;;8.80;99.90;;;;;;4983758;28;20513;-83
2023/05/01 01:50:10;;;;;;;1.92;1.73;;;8.80;99.90;;;;;;4982122;28;20567;-85
2023/05/01 01:52:38;;;;;;;5.45;3.00;;;8.70;99.90;;;;;;4982019;28;20089;-83
2023/05/01 01:55:08;;;;;;;2.45;2.15;;;8.80;99.90;;;;;;4982800;28;20113;-83
2023/05/01 01:57:36;;;;;;;2.92;2.45;;;8.80;99.90;;;;;;4981543;28;20366;-85
2023/05/01 02:00:07;;;;;;;3.10;2.20;;;8.80;99.90;;;;;;4982802;28;20081;-85
2023/05/01 02:02:38;;;;;;;2.95;2.05;;;8.70;99.90;;;;;;4981784;28;20531;-84
2023/05/01 02:05:10;;;;;;;3.38;2.10;;;8.80;99.90;;;;;;4983280;28;20512;-84
2023/05/01 02:07:39;;;;;;;2.60;1.42;;;8.70;99.90;;;;;;4981857;28;20049;-80
2023/05/01 02:10:07;;;;;;;3.08;2.13;;;8.70;99.90;;;;;;4983703;28;20125;-85
2023/05/01 02:12:34;;;;;;;4.28;2.13;;;8.70;99.90;;;;;;4981506;28;20058;-85
2023/05/01 02:15:01;;;;;;;2.10;1.85;;;8.70;99.90;;;;;;4983595;28;20169;-83
2023/05/01 02:17:28;;;;;;;4.60;3.03;;;8.70;99.90;;;;;;4982344;28;20043;-84
2023/05/01 02:19:56;;;;;;;3.83;2.35;;;8.70;99.90;;;;;;4981830;28;20082;-84
2023/05/01 02:22:22;;;;;;;4.72;2.25;;;8.70;99.90;;;;;;4981610;28;20066;-84
2023/05/01 02:24:48;;;;;;;6.93;2.17;;;8.60;99.90;;;;;;4983617;28;20038;-84
2023/05/01 02:27:23;;;;;;;4.07;1.90;;;8.70;99.90;;;;;;4981044;28;20043;-84
2023/05/01 02:29:51;;;;;;;3.80;2.50;;;8.70;99.90;;;;;;4983055;28;20044;-84
2023/05/01 02:32:17;;;;;;;3.55;1.35;;;8.60;99.90;;;;;;4982446;28;20069;-84
2023/05/01 02:34:42;;;;;;;2.58;1.90;;;8.70;99.90;;;;;;4983045;28;20433;-84
2023/05/01 02:37:11;;;;;;;2.47;1.67;;;8.60;99.90;;;;;;4986593;28;20053;-81
2023/05/01 02:39:37;;;;;;;1.88;1.50;;;8.60;99.90;;;;;;4985811;28;20042;-82
2023/05/01 02:42:05;;;;;;;2.90;1.50;;;8.60;99.90;;;;;;4985309;28;20081;-81
2023/05/01 02:44:39;;;;;;;5.35;2.28;;;8.50;99.90;;;;;;4986796;28;20035;-82
2023/05/01 02:47:07;;;;;;;5.07;2.53;;;8.50;99.90;;;;;;4986096;28;20070;-83
2023/05/01 02:49:34;;;;;;;2.08;1.42;;;8.50;99.90;;;;;;4986343;28;20489;-84
2023/05/01 02:52:00;;;;;;;4.70;2.72;;;8.50;99.90;;;;;;4986831;28;20096;-81
2023/05/01 02:54:26;;;;;;;3.35;1.42;;;8.50;99.90;;;;;;4986548;28;20046;-83
2023/05/01 02:56:52;;;;;;;3.72;2.47;;;8.40;99.90;;;;;;4984941;28;20500;-85
2023/05/01 02:59:18;;;;;;;5.13;1.98;;;8.40;99.90;;;;;;5001650;28;20248;-83
2023/05/01 03:01:43;;;;;;;3.13;2.42;;;8.40;99.90;;;;;;4986736;28;20049;-83
2023/05/01 03:04:09;;;;;;;4.03;1.92;;;8.30;99.90;;;;;;4984693;28;20045;-83
2023/05/01 03:06:34;;;;;;;5.40;2.03;;;8.30;99.90;;;;;;4986222;28;20034;-84
2023/05/01 03:09:01;;;;;;;3.60;2.08;;;8.30;99.90;;;;;;4986102;28;20124;-85
2023/05/01 03:11:27;;;;;;;2.83;1.95;;;8.20;99.90;;;;;;4983682;28;20054;-83
2023/05/01 03:13:52;;;;;;;4.28;2.17;;;8.20;99.90;;;;;;4986706;28;20494;-82
2023/05/01 03:16:18;;;;;;;4.30;1.95;;;8.30;99.90;;;;;;4986210;28;20481;-82
2023/05/01 03:18:44;;;;;;;3.67;1.45;;;8.20;99.90;;;;;;4985909;28;20695;-83
2023/05/01 03:21:11;;;;;;;1.75;1.60;;;8.20;99.90;;;;;;4986205;28;20130;-84
2023/05/01 03:23:37;;;;;;;3.05;2.00;;;8.20;99.90;;;;;;4985980;28;20057;-83
2023/05/01 03:26:02;;;;;;;2.47;1.92;;;8.20;99.90;;;;;;4985008;28;20412;-84
2023/05/01 03:28:28;;;;;;;2.78;2.13;;;8.20;99.90;;;;;;4985550;28;20038;-82
2023/05/01 03:30:54;;;;;;;4.40;2.50;;;8.20;99.90;;;;;;4986229;28;20342;-81
2023/05/01 03:33:19;;;;;;;1.80;1.40;;;8.20;99.90;;;;;;4985541;28;20039;-84
2023/05/01 03:35:45;;;;;;;4.03;1.80;;;8.20;99.90;;;;;;4985825;28;20644;-83
2023/05/01 03:38:10;;;;;;;2.45;1.67;;;8.20;99.90;;;;;;4986200;28;20050;-85
2023/05/01 03:40:36;;;;;;;5.25;1.95;;;8.20;99.90;;;;;;4984413;28;20452;-83
2023/05/01 03:43:02;;;;;;;2.67;1.70;;;8.20;99.90;;;;;;4986010;28;20074;-84
2023/05/01 03:45:28;;;;;;;2.60;2.28;;;8.10;99.90;;;;;;4983206;28;20053;-84
2023/05/01 03:47:53;;;;;;;1.90;1.73;;;8.10;99.90;;;;;;4985555;28;20054;-84
2023/05/01 03:50:19;;;;;;;5.15;2.53;;;8.10;99.90;;;;;;4984532;28;20065;-81
2023/05/01 03:52:45;;;;;;;3.92;2.05;;;8.10;99.90;;;;;;4985191;28;20054;-83
2023/05/01 03:55:10;;;;;;;2.08;1.90;;;8.10;99.90;;;;;;4985365;28;20118;-85
2023/05/01 03:57:36;;;;;;;2.25;2.05;;;8.00;99.90;;;;;;4983057;28;20043;-82
2023/05/01 04:00:04;;;;;;;2.75;1.88;;;8.10;99.90;;;;;;4985311;28;20496;-83
2023/05/01 04:02:30;;;;;;;2.83;1.85;;;8.00;99.90;;;;;;4984952;28;20070;-84
2023/05/01 04:04:56;;;;;;;4.03;1.98;;;8.00;99.90;;;;;;4983942;28;20109;-84
2023/05/01 04:07:22;;;;;;;4.53;1.92;;;8.00;99.90;;;;;;4984322;28;20089;-84
2023/05/01 04:09:47;;;;;;;4.97;1.65;;;8.00;99.90;;;;;;4983277;28;20062;-84
2023/05/01 04:12:13;;;;;;;2.63;1.95;;;8.00;99.90;;;;;;4984614;28;20500;-84
2023/05/01 04:14:38;;;;;;;2.28;1.60;;;8.00;99.90;;;;;;4983122;28;20049;-84
2023/05/01 04:17:05;;;;;;;2.30;1.95;;;8.00;99.90;;;;;;4985026;28;20689;-84
2023/05/01 04:19:30;;;;;;;3.25;1.92;;;7.90;99.90;;;;;;4984866;28;20141;-84
2023/05/01 04:21:56;;;;;;;3.08;1.58;;;7.90;99.90;;;;;;4967492;28;20074;-82
2023/05/01 04:24:21;;;;;;;3.20;1.88;;;8.00;99.90;;;;;;4983826;28;20053;-84
2023/05/01 04:26:47;;;;;;;2.83;2.25;;;8.00;99.90;;;;;;4983414;28;20046;-83
2023/05/01 04:29:13;;;;;;;2.83;2.53;;;8.00;99.90;;;;;;4983441;28;20555;-83
2023/05/01 04:31:40;;;;;;;2.75;1.60;;;8.00;99.90;;;;;;4982601;28;20125;-83
2023/05/01 04:34:06;;;;;;;2.95;1.77;;;7.90;99.90;;;;;;4984457;28;20050;-80
2023/05/01 04:36:31;;;;;;;4.10;3.28;;;8.00;99.90;;;;;;4984427;28;20512;-84
2023/05/01 04:38:57;;;;;;;3.78;2.88;;;8.00;99.90;;;;;;4982704;28;20121;-81
2023/05/01 04:41:23;;;;;;;4.55;2.17;;;8.00;99.90;;;;;;4999477;28;20454;-82
2023/05/01 04:43:48;;;;;;;4.40;2.08;;;8.00;99.90;;;;;;4983888;28;20057;-84
2023/05/01 04:46:14;;;;;;;2.25;1.52;;;8.00;99.90;;;;;;4984406;28;20042;-83
2023/05/01 04:48:39;;;;;;;2.05;1.50;;;8.00;99.90;;;;;;4984679;28;20424;-81
2023/05/01 04:51:05;;;;;;;3.53;2.25;;;8.10;99.90;;;;;;4984176;28;20037;-82
2023/05/01 04:53:31;;;;;;;3.22;2.15;;;8.10;99.90;;;;;;4983252;28;20046;-84
2023/05/01 04:55:56;;;;;;;2.97;2.70;;;8.10;99.90;;;;;;4982139;28;20042;-81
2023/05/01 04:58:23;;;;;;;1.75;1.60;;;8.10;99.90;;;;;;4966994;28;20052;-83
2023/05/01 05:00:48;;;;;;;2.13;1.95;;;8.20;99.90;;;;;;4983853;28;20056;-85
2023/05/01 05:03:17;;;;;;;3.20;2.63;;;8.20;99.90;;;;;;4982615;28;20038;-84
2023/05/01 05:05:43;;;;;;;4.45;2.22;;;8.20;99.90;;;;;;4984608;28;20052;-84
2023/05/01 05:08:09;;;;;;;2.65;2.00;;;8.20;99.90;;;;;;4983205;28;20476;-81
2023/05/01 05:10:35;;;;;;;2.67;2.47;;;8.20;99.90;;;;;;4983273;28;20116;-84
2023/05/01 05:13:00;;;;;;;6.30;2.80;;;8.30;99.90;;;;;;4983546;28;20057;-85
2023/05/01 05:15:26;;;;;;;3.63;1.88;;;8.30;99.90;;;;;;4982641;28;20069;-83
2023/05/01 05:17:51;;;;;;;1.90;1.52;;;8.30;99.90;;;;;;4984032;28;20038;-85
2023/05/01 05:20:17;;;;;;;3.80;2.10;;;8.30;99.90;;;;;;4983597;28;20038;-83
2023/05/01 05:22:43;;;;;;;3.60;2.05;;;8.30;99.90;;;;;;4984126;28;20051;-85
2023/05/01 05:25:08;;;;;;;3.78;2.42;;;8.40;99.90;;;;;;4981646;28;20046;-84
2023/05/01 05:27:36;;;;;;;3.33;1.70;;;8.40;99.90;;;;;;4984256;28;20532;-83
2023/05/01 05:30:06;;;;;;;4.93;3.33;;;8.40;99.90;;;;;;4983612;28;20088;-83
2023/05/01 05:32:32;;;;;;;2.20;1.98;;;8.40;99.90;;;;;;4983230;28;20042;-83
2023/05/01 05:34:58;;;;;;;3.50;1.55;;;8.50;99.90;;;;;;4984533;28;20054;-82
2023/05/01 05:37:24;;;;;;;3.63;2.17;;;8.50;99.90;;;;;;4982656;28;20454;-85
2023/05/01 05:39:51;;;;;;;2.85;2.58;;;8.50;99.90;;;;;;4998381;28;20050;-82
2023/05/01 05:42:16;;;;;;;2.90;1.77;;;8.60;99.90;;;;;;4982817;28;20077;-85
2023/05/01 05:44:42;;;;;;;3.38;1.83;;;8.60;99.90;;;;;;4983301;28;20073;-83
2023/05/01 05:47:08;;;;;;;4.75;2.40;;;8.60;99.90;;;;;;4983893;28;20047;-84
2023/05/01 05:49:33;;;;;;;5.47;2.78;;;8.60;99.90;;;;;;4981817;28;20121;-80
2023/05/01 05:51:59;;;;;;;2.97;2.30;;;8.70;99.90;;;;;;4966725;28;20097;-83
2023/05/01 05:54:25;;;;;;;5.20;2.40;;;8.70;99.90;;;;;;4982300;28;20105;-85
2023/05/01 05:56:50;;;;;;;4.50;2.13;;;8.70;99.90;;;;;;4980633;28;20039;-81
2023/05/01 05:59:17;;;;;;;2.38;1.88;;;8.80;99.90;;;;;;4984072;28;20288;-80
2023/05/01 06:01:42;;;;;;;5.00;2.72;;;8.80;99.90;;;;;;4982236;28;20043;-81
2023/05/01 06:04:08;;;;;;;3.17;2.65;;;8.90;99.90;;;;;;4983330;28;20105;-83
2023/05/01 06:06:34;;;;;;;5.45;2.55;;;8.90;99.90;;;;;;4982768;28;20038;-86
2023/05/01 06:09:00;;;;;;;3.15;2.22;;;8.90;99.90;;;;;;4966379;28;20750;-80
2023/05/01 06:11:26;;;;;;;4.10;1.98;;;9.00;99.90;;;;;;4986433;28;20061;-86
2023/05/01 06:13:52;;;;;;;3.42;2.22;;;9.00;99.90;;;;;;4986438;28;20050;-84
2023/05/01 06:16:18;;;;;;;3.60;2.40;;;9.00;99.90;;;;;;4987747;28;20044;-83
2023/05/01 06:18:43;;;;;;;9.93;2.78;;;9.10;99.90;;;;;;4986902;28;20401;-86
2023/05/01 06:21:09;;;;;;;2.38;1.45;;;9.10;99.90;;;;;;4987013;28;20053;-84
2023/05/01 06:23:35;;;;;;;3.03;2.10;;;9.20;99.90;;;;;;4985822;28;20085;-86
2023/05/01 06:26:00;;;;;;;3.50;2.10;;;9.20;99.90;;;;;;4986232;28;20077;-83
2023/05/01 06:28:26;;;;;;;4.68;2.45;;;9.20;99.90;;;;;;4969184;28;20133;-86
2023/05/01 06:30:51;;;;;;;3.65;1.67;;;9.30;99.90;;;;;;4986692;28;20400;-85
2023/05/01 06:33:17;;;;;;;4.95;2.60;;;9.30;99.90;;;;;;4987183;28;20053;-84
2023/05/01 06:35:42;;;;;;;5.05;2.22;;;9.40;99.90;;;;;;4986028;28;20046;-86
2023/05/01 06:38:08;;;;;;;1.77;1.27;;;9.40;99.90;;;;;;4987099;28;20251;-84
2023/05/01 06:40:34;;;;;;;10.85;2.28;;;9.50;99.90;;;;;;4985157;28;20053;-81
2023/05/01 06:43:03;;;;;;;4.65;2.80;;;9.50;99.90;;;;;;4987036;28;20473;-84
2023/05/01 06:45:28;;;;;;;3.60;2.45;;;9.60;99.90;;;;;;4987003;28;20069;-85
2023/05/01 06:47:54;;;;;;;5.07;2.10;;;9.60;99.90;;;;;;4986446;28;20224;-86
2023/05/01 06:50:19;;;;;;;4.53;2.67;;;9.70;99.90;;;;;;4986353;28;20475;-82
2023/05/01 06:52:45;;;;;;;3.13;2.03;;;9.70;99.90;;;;;;4986340;28;20050;-86
2023/05/01 06:55:11;;;;;;;3.42;2.13;;;9.80;99.90;;;;;;4984357;28;20042;-85
2023/05/01 06:57:38;;;;;;;3.78;2.63;;;9.80;99.90;;;;;;4985315;28;20396;-86
2023/05/01 07:00:05;;;;;;;3.38;2.40;;;9.90;99.90;;;;;;4986496;28;20046;-85
2023/05/01 07:02:31;;;;;;;6.53;2.30;;;10.00;99.90;;;;;;4985834;28;20046;-84
2023/05/01 07:04:56;;;;;;;4.38;2.75;;;10.00;99.90;;;;;;4985960;28;20401;-83
2023/05/01 07:07:22;;;;;;;2.58;1.73;;;10.10;99.90;;;;;;4986427;28;20491;-84
2023/05/01 07:09:48;;;;;;;5.57;2.25;;;10.10;99.90;;;;;;4985391;28;20060;-82
2023/05/01 07:12:13;;;;;;;2.92;1.88;;;10.20;99.90;;;;;;4984638;28;20377;-85
2023/05/01 07:14:40;;;;;;;6.78;2.50;;;10.20;99.90;;;;;;4968728;28;20512;-84
2023/05/01 07:17:06;;;;;;;3.65;2.20;;;10.30;99.90;;;;;;4968731;28;20080;-81
2023/05/01 07:19:31;;;;;;;7.63;2.80;;;10.40;99.90;;;;;;4986483;28;20590;-83
2023/05/01 07:21:57;;;;;;;4.18;2.53;;;10.40;99.90;;;;;;4986233;28;20049;-86
2023/05/01 07:24:22;;;;;;;9.30;2.20;;;10.50;99.90;;;;;;4984054;28;20274;-81
2023/05/01 07:26:48;;;;;;;4.93;3.42;;;10.50;99.90;;;;;;4984982;28;20410;-83
2023/05/01 07:29:15;;;;;;;4.57;2.67;;;10.60;99.90;;;;;;4985528;28;20042;-86
2023/05/01 07:31:41;;;;;;;4.80;1.60;;;10.60;99.90;;;;;;4985899;28;20042;-83
2023/05/01 07:34:07;;;;;;;3.20;1.48;;;10.70;99.90;;;;;;4984627;28;20068;-85
2023/05/01 07:36:32;;;;;;;3.58;2.20;;;10.70;99.90;;;;;;5000615;28;20042;-84
2023/05/01 07:38:58;;;;;;;3.50;2.33;;;10.80;99.90;;;;;;4985679;28;20038;-84
2023/05/01 07:41:24;;;;;;;4.68;1.77;;;10.80;99.90;;;;;;4982992;28;20043;-85
2023/05/01 07:43:52;;;;;;;5.57;2.13;;;10.80;99.90;;;;;;4984580;28;20046;-84
2023/05/01 07:46:18;;;;;;;2.85;2.10;;;10.90;99.90;;;;;;4985743;28;20130;-87
2023/05/01 07:48:44;;;;;;;6.10;2.90;;;10.90;99.90;;;;;;4985067;28;20073;-83
2023/05/01 07:51:09;;;;;;;2.58;2.20;;;10.90;99.90;;;;;;4985705;28;20042;-84
2023/05/01 07:53:35;;;;;;;2.25;1.83;;;11.00;99.90;;;;;;4984035;28;20133;-86
2023/05/01 07:56:06;;;;;;;5.20;2.05;;;11.00;99.90;;;;;;4966870;28;20434;-84
2023/05/01 07:58:31;;;;;;;4.38;2.58;;;11.00;99.90;;;;;;4984399;28;20046;-83
2023/05/01 08:00:57;;;;;;;3.60;1.88;;;11.10;99.90;;;;;;4985191;28;20097;-81
2023/05/01 08:03:23;;;;;;;3.65;2.55;;;11.10;99.90;;;;;;5000649;28;20038;-86
2023/05/01 08:05:48;;;;;;;7.20;2.50;;;11.20;99.90;;;;;;4985119;28;20073;-85
2023/05/01 08:08:19;;;;;;;4.22;2.40;;;11.20;99.90;;;;;;4983579;28;20201;-84
2023/05/01 08:10:45;;;;;;;4.70;2.45;;;11.30;99.90;;;;;;4983305;28;20520;-85
2023/05/01 08:13:10;;;;;;;5.35;3.33;;;11.30;99.90;;;;;;4985226;28;20050;-86
2023/05/01 08:15:37;;;;;;;6.30;2.63;;;11.30;99.90;;;;;;4985177;28;20038;-85
2023/05/01 08:18:04;;;;;;;4.18;1.85;;;11.40;99.90;;;;;;4985631;28;20054;-84
2023/05/01 08:20:29;;;;;;;4.53;1.98;;;11.50;99.90;;;;;;4984665;28;20049;-85
2023/05/01 08:22:55;;;;;;;2.60;1.98;;;11.50;99.90;;;;;;4985316;28;20223;-81
2023/05/01 08:25:21;;;;;;;3.80;1.85;;;11.50;99.90;;;;;;4984247;28;20122;-85
2023/05/01 08:27:48;;;;;;;4.20;1.85;;;11.60;99.90;;;;;;4985167;28;20054;-84
2023/05/01 08:30:13;;;;;;;3.67;1.90;;;11.60;99.90;;;;;;4984708;28;20533;-85
2023/05/01 08:32:39;;;;;;;4.53;2.63;;;11.60;99.90;;;;;;4984402;28;20077;-83
2023/05/01 08:35:05;;;;;;;4.50;1.52;;;11.60;99.90;;;;;;4984708;28;20128;-85
2023/05/01 08:37:31;;;;;;;2.92;1.38;;;11.70;99.90;;;;;;4984736;28;20162;-87
2023/05/01 08:39:56;;;;;;;3.28;2.40;;;11.70;99.90;;;;;;4966597;28;20587;-84
2023/05/01 08:42:22;;;;;;;3.22;1.75;;;11.70;99.90;;;;;;4984455;28;20088;-86
2023/05/01 08:44:49;;;;;;;2.60;1.27;;;11.80;99.90;;;;;;4984319;28;20141;-84
2023/05/01 08:47:17;;;;;;;3.67;1.73;;;11.80;99.90;;;;;;4984746;28;20038;-83
2023/05/01 08:49:44;;;;;;;2.20;1.52;;;11.90;99.90;;;;;;4984103;28;20069;-86
2023/05/01 08:52:14;;;;;;;4.75;1.77;;;12.00;99.90;;;;;;4984036;28;20136;-85
2023/05/01 08:54:45;;;;;;;3.03;1.65;;;12.10;99.90;;;;;;4966413;28;20419;-83
2023/05/01 08:57:11;;;;;;;2.95;1.73;;;12.20;99.90;;;;;;4984630;28;20049;-85
2023/05/01 08:59:38;;;;;;;2.92;1.80;;;12.30;99.90;;;;;;4982868;28;20500;-86
2023/05/01 09:02:06;;;;;;;3.10;2.03;;;12.40;99.90;;;;;;4984306;28;20122;-84
2023/05/01 09:04:35;;;;;;;4.00;2.20;;;12.50;99.90;;;;;;4983993;28;20519;-86
2023/05/01 09:07:02;;;;;;;2.25;2.00;;;12.50;99.90;;;;;;4982729;28;20042;-85
2023/05/01 09:09:29;;;;;;;2.88;1.75;;;12.60;99.90;;;;;;4983378;28;20050;-82
2023/05/01 09:11:59;;;;;;;3.97;1.90;;;12.70;99.90;;;;;;4984377;28;20125;-85
2023/05/01 09:14:25;;;;;;;1.80;0.85;;;12.70;99.90;;;;;;4982609;28;20497;-85
2023/05/01 09:16:51;;;;;;;1.88;1.30;;;12.80;99.90;;;;;;4966075;28;20085;-85
2023/05/01 09:19:18;;;;;;;2.83;1.33;;;12.90;99.90;;;;;;4984028;28;20046;-84
2023/05/01 09:21:43;;;;;;;2.03;1.42;;;12.90;99.90;;;;;;4983764;28;20197;-87
2023/05/01 09:24:09;;;;;;;1.92;1.65;;;12.90;99.90;;;;;;4984600;28;20137;-84
2023/05/01 09:26:40;;;;;;;3.65;1.60;;;13.00;99.90;;;;;;4983256;28;20034;-86
2023/05/01 09:29:06;;;;;;;1.58;1.10;;;13.10;99.90;;;;;;4983600;28;20121;-86
2023/05/01 09:31:32;;;;;;;1.40;1.02;;;13.10;99.90;;;;;;4983667;28;20130;-85
2023/05/01 09:33:59;;;;;;;3.80;1.02;;;13.20;99.90;;;;;;4981873;28;20049;-86
2023/05/01 09:36:32;;;;;;;1.50;0.90;;;13.30;99.90;;;;;;4982124;28;20528;-84
2023/05/01 09:39:01;;;;;;;2.55;1.30;;;13.30;99.90;;;;;;4965830;28;20141;-82
2023/05/01 09:41:28;;;;;;;3.25;1.80;;;13.40;99.90;;;;;;4983032;28;20042;-84
2023/05/01 09:43:55;;;;;;;6.15;2.05;;;13.40;99.90;;;;;;4982731;28;20077;-86
2023/05/01 09:46:23;;;;;;;2.95;1.33;;;13.40;99.90;;;;;;4987201;28;20500;-84
2023/05/01 09:49:06;;;;;;;1.42;1.08;;;13.50;99.90;;;;;;4988387;28;20046;-84
2023/05/01 09:51:33;;;;;;;1.60;1.00;;;13.60;99.90;;;;;;4985991;28;20058;-85
2023/05/01 09:54:03;;;;;;;5.43;2.20;;;13.60;99.90;;;;;;4987654;28;20101;-84
2023/05/01 09:56:31;;;;;;;2.40;1.50;;;13.70;99.90;;;;;;4987262;28;20420;-86
2023/05/01 09:59:15;;;;;;;1.17;0.82;;;13.80;99.90;;;;;;4987535;28;20457;-85
2023/05/01 10:01:43;;;;;;;2.83;1.48;;;13.80;99.90;;;;;;4988169;28;20477;-83
2023/05/01 10:04:09;;;;;;;1.50;1.15;;;13.90;99.90;;;;;;4970350;28;20050;-84
2023/05/01 10:06:35;;;;;;;3.15;2.00;;;13.90;99.90;;;;;;4985503;28;20575;-85
2023/05/01 10:09:03;;;;;;;2.33;1.80;;;13.90;99.90;;;;;;4987456;28;20436;-84
2023/05/01 10:11:29;;;;;;;2.67;0.85;;;13.90;99.90;;;;;;4985186;28;20575;-86
2023/05/01 10:14:09;;;;;;;2.13;1.20;;;14.00;99.90;;;;;;4987232;28;20074;-84
2023/05/01 10:16:37;;;;;;;2.17;1.05;;;14.10;99.90;;;;;;4985813;28;20050;-86
2023/05/01 10:19:03;;;;;;;4.53;1.13;;;14.20;99.90;;;;;;4986862;28;20043;-84
2023/05/01 10:21:31;;;;;;;4.35;1.50;;;14.20;99.90;;;;;;4986079;28;20038;-81
2023/05/01 10:23:58;;;;;;;3.65;0.95;;;14.20;99.90;;;;;;4987085;28;20030;-85
2023/05/01 10:26:25;;;;;;;2.83;1.13;;;14.30;99.90;;;;;;4986151;28;20086;-83
2023/05/01 10:28:51;;;;;;;1.92;1.42;;;14.40;99.90;;;;;;4986929;28;20042;-84
2023/05/01 10:31:17;;;;;;;2.67;1.05;;;14.40;99.90;;;;;;4987112;28;20455;-86
2023/05/01 10:33:44;;;;;;;1.60;1.00;;;14.50;99.90;;;;;;4985984;28;20039;-84
2023/05/01 10:36:16;;;;;;;2.13;1.20;;;14.50;99.90;;;;;;4985550;28;20125;-86
2023/05/01 10:38:47;;;;;;;2.60;1.03;;;14.50;99.90;;;;;;4987070;28;20129;-86
2023/05/01 10:41:14;;;;;;;1.58;1.13;;;14.60;99.90;;;;;;4985850;28;20038;-85
2023/05/01 10:43:40;;;;;;;2.47;0.90;;;14.70;99.90;;;;;;4987006;28;20045;-83
2023/05/01 10:46:11;;;;;;;2.22;1.10;;;14.70;99.90;;;;;;4986633;28;20097;-85
2023/05/01 10:48:36;;;;;;;1.88;1.15;;;14.80;99.90;;;;;;4984810;28;20038;-86
2023/05/01 10:51:09;;;;;;;3.70;1.15;;;14.80;99.90;;;;;;4987074;28;20064;-81
2023/05/01 10:53:35;;;;;;;1.83;1.02;;;14.80;99.90;;;;;;4985566;28;20086;-84
2023/05/01 10:56:04;;;;;;;3.60;1.15;;;14.80;99.90;;;;;;4985043;28;20031;-86
2023/05/01 10:58:36;;;;;;;2.00;1.25;;;14.80;99.90;;;;;;4986201;28;20050;-85
2023/05/01 11:01:27;;;;;;;1.70;1.10;;;14.80;99.90;;;;;;4985988;28;20451;-82
2023/05/01 11:03:55;;;;;;;5.82;1.08;;;14.90;99.90;;;;;;4986378;28;20050;-85
2023/05/01 11:06:21;;;;;;;1.90;1.30;;;14.90;99.90;;;;;;4986245;28;20050;-84
2023/05/01 11:08:48;;;;;;;7.95;1.42;;;14.90;99.90;;;;;;4986555;28;20043;-87
2023/05/01 11:11:20;;;;;;;1.75;1.38;;;14.90;99.90;;;;;;4985406;28;20050;-85
2023/05/01 11:13:58;;;;;;;2.13;1.95;;;15.00;99.90;;;;;;4969192;28;20219;-84
2023/05/01 11:16:40;;;;;;;2.60;1.20;;;15.00;99.90;;;;;;4986478;28;20089;-84
2023/05/01 11:19:19;;;;;;;2.63;1.10;;;14.90;99.90;;;;;;4985033;28;20409;-81
2023/05/01 11:21:45;;;;;;;1.17;0.88;;;14.90;99.90;;;;;;4968953;28;20335;-82
2023/05/01 11:24:11;;;;;;;4.05;1.15;;;14.90;99.90;;;;;;4967611;28;20377;-86
2023/05/01 11:26:41;;;;;;;1.98;1.10;;;14.90;99.90;;;;;;4968912;28;20108;-83
2023/05/01 11:29:11;;;;;;;2.30;1.70;;;14.90;99.90;;;;;;4985850;28;20408;-85
2023/05/01 11:31:38;;;;;;;2.40;1.15;;;14.90;99.90;;;;;;4985836;28;20042;-88
2023/05/01 11:34:07;;;;;;;3.35;1.30;;;14.90;99.90;;;;;;4984065;28;20046;-83
2023/05/01 11:36:49;;;;;;;2.65;1.42;;;14.90;99.90;;;;;;4985868;28;20201;-84
2023/05/01 11:39:18;;;;;;;1.98;1.00;;;14.90;99.90;;;;;;4984216;28;20054;-87
2023/05/01 11:41:44;;;;;;;6.22;1.48;;;14.90;99.90;;;;;;4985784;28;20117;-84
2023/05/01 11:44:16;;;;;;;3.55;1.60;;;14.90;99.90;;;;;;4984773;28;20054;-83
2023/05/01 11:46:41;;;;;;;3.80;1.98;;;14.90;99.90;;;;;;4985912;28;20043;-87
2023/05/01 11:49:08;;;;;;;3.60;1.48;;;14.80;99.90;;;;;;4985349;28;20038;-86
2023/05/01 11:51:33;;;;;;;4.28;2.25;;;14.90;99.90;;;;;;4968123;28;20085;-84
2023/05/01 11:54:04;;;;;;;2.38;1.80;;;14.90;99.90;;;;;;4984746;28;20085;-82
2023/05/01 11:56:30;;;;;;;5.15;1.55;;;14.80;99.90;;;;;;4985004;28;20116;-84
2023/05/01 11:58:58;;;;;;;3.85;1.80;;;14.80;99.90;;;;;;4986021;28;20038;-85
2023/05/01 12:01:38;;;;;;;3.13;1.60;;;14.80;99.90;;;;;;4985372;28;20042;-86
2023/05/01 12:04:06;;;;;;;8.10;2.47;;;14.70;99.90;;;;;;4984990;28;20126;-84
2023/05/01 12:06:42;;;;;;;5.68;2.25;;;14.70;99.90;;;;;;4984715;28;20500;-85
2023/05/01 12:09:15;;;;;;;3.58;1.92;;;14.70;99.90;;;;;;4984023;28;20120;-85
2023/05/01 12:11:41;;;;;;;3.03;2.00;;;14.70;99.90;;;;;;4985518;28;20392;-85
2023/05/01 12:14:08;;;;;;;5.00;2.47;;;14.70;99.90;;;;;;4984960;28;20046;-84
2023/05/01 12:16:34;;;;;;;5.50;1.75;;;14.70;99.90;;;;;;4983740;28;20034;-83
2023/05/01 12:19:01;;;;;;;4.68;2.50;;;14.70;99.90;;;;;;4985229;28;20133;-86
2023/05/01 12:21:27;;;;;;;6.97;2.20;;;14.70;99.90;;;;;;4984620;28;20520;-85
2023/05/01 12:23:53;;;;;;;7.78;2.50;;;14.70;99.90;;;;;;4985402;28;20089;-82
2023/05/01 12:26:24;;;;;;;4.15;2.50;;;14.70;99.90;;;;;;4983976;28;20134;-85
2023/05/01 12:28:53;;;;;;;4.88;2.42;;;14.70;99.90;;;;;;4985314;28;20402;-84
2023/05/01 12:31:19;;;;;;;6.13;3.50;;;14.70;99.90;;;;;;4984186;28;20152;-82
2023/05/01 12:34:06;;;;;;;6.13;2.75;;;14.70;99.90;;;;;;4984419;28;20151;-86
2023/05/01 12:36:34;;;;;;;5.47;2.97;;;14.70;99.90;;;;;;4983440;28;20077;-83
2023/05/01 12:39:05;;;;;;;5.80;2.80;;;14.70;99.90;;;;;;4983900;28;20046;-82
2023/05/01 12:41:43;;;;;;;6.30;2.58;;;14.70;99.90;;;;;;4984868;28;20046;-85
2023/05/01 12:44:38;;;;;;;4.03;2.45;;;14.70;99.90;;;;;;4984792;28;20575;-84
2023/05/01 12:47:06;;;;;;;4.18;2.63;;;14.70;99.90;;;;;;4966946;28;20145;-84
2023/05/01 12:49:32;;;;;;;5.20;2.33;;;14.70;99.90;;;;;;4984334;28;20572;-86
2023/05/01 12:52:03;;;;;;;8.07;3.28;;;14.70;99.90;;;;;;4983874;28;20333;-84
2023/05/01 12:54:37;;;;;;;5.97;2.60;;;14.80;99.90;;;;;;4983451;28;20057;-85
2023/05/01 12:57:16;;;;;;;5.45;2.90;;;14.80;99.90;;;;;;4984042;28;20129;-81